Lily, Kentucky
Current Conditions -  °F | °C
As of 3:53 AM on Monday 24 Nov 2014 (Local Time) from KLOZ Reporting Station
Broken Clouds Broken Clouds  
Wind Chill: 63°   Ceiling: 4100
Heat Index: 63°   Visibility: 10mi
Dew Point: 52°   Wind: 16mph
Humidity: 67%   Direction: 210°SSW
Pressure: 29.53"   Gusts: 25mph
Location:  37.02°N, 84.08°W
Report Text: KLOZ 240853Z AUTO 21014G22KT 10SM SCT034 BKN041 BKN055 17/11 A2953 RMK AO2 SLP991 T01720111 58000
Loading
Personal Weather Stations






























Interactive Weather Map New forecast layout! Learn more

10-Day Weather Forecast

Advertisements
Track Severe Weather on mobile